Time;durP1;ratioP1;P1;durP2;ratioP2;P2;SDS_P1;SDS_P2;PMS_P1;PMS_P2;Temp;Humidity;BMP_temperature;BMP_pressure;BME280_temperature;BME280_humidity;BME280_pressure;Samples;Min_cycle;Max_cycle;Signal;HPM_P1;HPM_P2
2021/07/28 00:00:01;;;;;;;7.05;4.78;;;;;;;18.48;95.70;100805.78;6203988;28;20058;-78
2021/07/28 00:03:03;;;;;;;10.40;5.90;;;;;;;18.49;95.88;100804.84;6204271;28;20053;-78
2021/07/28 00:06:04;;;;;;;10.05;5.72;;;;;;;18.47;95.81;100798.78;6203304;28;20046;-78
2021/07/28 00:09:05;;;;;;;10.15;5.03;;;;;;;18.47;95.36;100785.47;6203991;28;20054;-78
2021/07/28 00:12:08;;;;;;;7.60;5.05;;;;;;;18.48;96.33;100792.47;6205850;28;20046;-78
2021/07/28 00:15:12;;;;;;;7.38;5.75;;;;;;;18.48;96.12;100786.31;6211415;28;20053;-78
2021/07/28 00:18:20;;;;;;;10.20;5.25;;;;;;;18.43;96.12;100776.06;6217682;28;20054;-78
2021/07/28 00:24:40;;;;;;;6.75;5.32;;;;;;;18.35;96.83;100775.03;6228154;28;20132;-78
2021/07/28 00:27:41;;;;;;;7.25;4.90;;;;;;;18.38;96.10;100764.97;6227148;28;20413;-78
2021/07/28 00:30:44;;;;;;;6.70;4.95;;;;;;;18.35;96.70;100769.72;6227004;28;20053;-79
2021/07/28 00:33:46;;;;;;;7.40;5.15;;;;;;;18.32;96.15;100767.34;6227037;28;20053;-79
2021/07/28 00:36:47;;;;;;;9.40;5.53;;;;;;;18.35;95.77;100772.38;6226391;28;20050;-79
2021/07/28 00:39:48;;;;;;;8.90;5.13;;;;;;;18.33;95.78;100766.34;6220827;28;20410;-78
2021/07/28 00:42:50;;;;;;;6.57;4.80;;;;;;;18.28;95.40;100766.75;6224178;28;20053;-78
2021/07/28 00:45:52;;;;;;;8.23;5.50;;;;;;;18.28;94.78;100764.09;6226946;28;20054;-78
2021/07/28 00:48:54;;;;;;;6.95;5.07;;;;;;;18.24;95.00;100760.84;6226024;28;20050;-78
2021/07/28 00:52:01;;;;;;;7.78;5.50;;;;;;;18.22;94.55;100765.47;6226592;28;20083;-78
2021/07/28 00:55:03;;;;;;;7.55;4.82;;;;;;;18.19;94.76;100764.88;6226807;28;20418;-78
2021/07/28 00:58:05;;;;;;;6.70;4.40;;;;;;;18.15;94.85;100756.31;6225791;28;20411;-78
2021/07/28 01:01:07;;;;;;;8.88;5.20;;;;;;;18.12;95.08;100763.69;6226138;28;20049;-79
2021/07/28 01:04:09;;;;;;;9.82;4.97;;;;;;;18.07;94.97;100752.59;6226285;28;20514;-78
2021/07/28 01:07:10;;;;;;;8.50;4.72;;;;;;;17.99;96.35;100746.13;6226600;28;20057;-78
2021/07/28 01:10:12;;;;;;;8.82;4.80;;;;;;;17.97;95.82;100749.88;6225285;28;20498;-78
2021/07/28 01:13:16;;;;;;;6.78;4.78;;;;;;;17.92;95.54;100747.63;6226085;28;20041;-78
2021/07/28 01:16:22;;;;;;;10.35;4.88;;;;;;;17.87;95.82;100747.16;6224625;28;20117;-78
2021/07/28 01:19:27;;;;;;;6.45;4.90;;;;;;;17.86;95.65;100744.66;6225637;28;20556;-79
2021/07/28 01:22:29;;;;;;;11.00;5.10;;;;;;;17.82;95.82;100740.56;6225394;28;20054;-78
2021/07/28 01:25:33;;;;;;;9.52;4.72;;;;;;;17.75;95.90;100738.38;6225455;28;20049;-78
2021/07/28 01:28:35;;;;;;;6.15;4.53;;;;;;;17.69;95.41;100727.41;6224572;28;20056;-79
2021/07/28 01:31:40;;;;;;;8.45;4.57;;;;;;;17.65;95.37;100728.63;6225153;28;20053;-78
2021/07/28 01:34:41;;;;;;;7.15;4.15;;;;;;;17.65;95.55;100744.56;6225678;28;20052;-78
2021/07/28 01:37:45;;;;;;;7.53;4.78;;;;;;;17.53;96.37;100742.94;6224839;28;20046;-78
2021/07/28 01:40:47;;;;;;;7.00;4.25;;;;;;;17.48;97.06;100744.16;6224769;28;20054;-78
2021/07/28 01:43:49;;;;;;;7.50;4.95;;;;;;;17.47;97.47;100745.13;6224751;28;20041;-78
2021/07/28 01:46:50;;;;;;;7.68;4.72;;;;;;;17.41;97.56;100739.47;6224700;28;20046;-79
2021/07/28 01:49:51;;;;;;;11.13;4.85;;;;;;;17.38;97.63;100743.22;6224099;28;20061;-79
2021/07/28 01:52:53;;;;;;;6.70;4.82;;;;;;;17.29;97.98;100729.84;6224400;28;20436;-79
2021/07/28 01:55:57;;;;;;;5.80;4.43;;;;;;;17.31;99.05;100735.91;6224157;28;20057;-78
2021/07/28 01:58:58;;;;;;;7.13;4.72;;;;;;;17.30;98.63;100727.06;6223663;28;20057;-78
2021/07/28 02:02:00;;;;;;;8.18;4.07;;;;;;;17.27;99.11;100730.00;6223720;28;20050;-78
2021/07/28 02:05:02;;;;;;;5.43;4.35;;;;;;;17.27;99.18;100730.00;6224319;28;20054;-78
2021/07/28 02:08:06;;;;;;;7.93;5.35;;;;;;;17.21;99.48;100728.69;6223775;28;20042;-78
2021/07/28 02:11:08;;;;;;;9.38;4.63;;;;;;;17.16;99.67;100743.28;6223230;28;20046;-78
2021/07/28 02:14:09;;;;;;;7.55;4.97;;;;;;;17.11;99.91;100738.34;6223444;28;20534;-79
2021/07/28 02:17:11;;;;;;;7.15;4.60;;;;;;;17.04;100.00;100729.19;6223651;28;20045;-78
2021/07/28 02:20:14;;;;;;;6.82;4.55;;;;;;;17.01;100.00;100739.22;6222848;28;20061;-78
2021/07/28 02:23:15;;;;;;;7.57;5.28;;;;;;;16.99;100.00;100740.19;6223351;28;20053;-77
2021/07/28 02:26:18;;;;;;;6.28;4.95;;;;;;;16.89;100.00;100736.56;6223081;28;20058;-78
2021/07/28 02:29:19;;;;;;;8.98;5.38;;;;;;;16.91;100.00;100737.31;6226918;28;20050;-78
2021/07/28 02:32:21;;;;;;;11.45;5.97;;;;;;;16.94;100.00;100736.19;6227358;28;20493;-78
2021/07/28 02:35:22;;;;;;;9.10;5.60;;;;;;;16.88;100.00;100742.00;6227102;28;20061;-78
2021/07/28 02:38:23;;;;;;;10.75;5.78;;;;;;;16.82;100.00;100734.53;6227202;28;20056;-78
2021/07/28 02:41:26;;;;;;;7.97;5.70;;;;;;;16.76;100.00;100735.88;6226658;28;20414;-78
2021/07/28 02:44:28;;;;;;;13.52;6.30;;;;;;;16.71;100.00;100735.34;6227162;28;20057;-78
2021/07/28 02:47:29;;;;;;;9.05;6.28;;;;;;;16.67;100.00;100724.16;6226750;28;20053;-78
2021/07/28 02:50:32;;;;;;;12.68;5.97;;;;;;;16.64;100.00;100729.69;6226713;28;20061;-78
2021/07/28 02:53:33;;;;;;;10.00;5.85;;;;;;;16.63;100.00;100733.31;6226160;28;20050;-78
2021/07/28 02:56:36;;;;;;;11.65;6.40;;;;;;;16.61;100.00;100737.03;6226461;28;20054;-77
2021/07/28 02:59:37;;;;;;;10.98;7.00;;;;;;;16.59;100.00;100738.97;6226033;28;20417;-78
2021/07/28 03:02:38;;;;;;;7.25;6.00;;;;;;;16.57;100.00;100746.22;6226017;28;20042;-78
2021/07/28 03:05:41;;;;;;;14.77;7.40;;;;;;;16.62;100.00;100749.34;6226231;28;20413;-79
2021/07/28 03:08:42;;;;;;;9.45;6.00;;;;;;;16.64;100.00;100750.91;6225886;28;20473;-78
2021/07/28 03:11:45;;;;;;;14.68;7.43;;;;;;;16.60;100.00;100754.78;6269619;22;20052;-77
2021/07/28 03:14:46;;;;;;;15.57;6.60;;;;;;;16.57;100.00;100744.38;6274690;28;20049;-77
2021/07/28 03:17:48;;;;;;;8.57;6.28;;;;;;;16.54;100.00;100742.00;6274785;28;20060;-77
2021/07/28 03:20:49;;;;;;;8.75;6.07;;;;;;;16.56;100.00;100742.72;6274543;28;20045;-77
2021/07/28 03:23:50;;;;;;;12.60;6.70;;;;;;;16.53;100.00;100747.41;6274379;28;20052;-77
2021/07/28 03:26:53;;;;;;;9.40;5.93;;;;;;;16.46;100.00;100739.94;6274384;28;20049;-78
2021/07/28 03:29:54;;;;;;;10.27;6.88;;;;;;;16.40;100.00;100744.88;6274125;28;20049;-77
2021/07/28 03:32:56;;;;;;;11.10;6.68;;;;;;;16.41;100.00;100746.56;6274033;28;20045;-77
2021/07/28 03:35:58;;;;;;;9.02;6.28;;;;;;;16.41;100.00;100736.81;6273970;28;20049;-77
2021/07/28 03:38:59;;;;;;;12.82;6.07;;;;;;;16.38;100.00;100742.34;6273091;28;20059;-77
2021/07/28 03:42:02;;;;;;;7.05;5.30;;;;;;;16.37;100.00;100743.31;6273879;28;20048;-76
2021/07/28 03:45:03;;;;;;;8.18;5.63;;;;;;;16.38;100.00;100742.34;6274156;28;20075;-77
2021/07/28 03:48:05;;;;;;;9.98;5.18;;;;;;;16.44;100.00;100746.31;6273593;28;20041;-77
2021/07/28 03:51:07;;;;;;;11.57;5.35;;;;;;;16.46;100.00;100752.38;6273861;28;20049;-76
2021/07/28 03:54:08;;;;;;;11.80;5.22;;;;;;;16.45;100.00;100754.16;6273628;28;20045;-77
2021/07/28 03:57:11;;;;;;;10.88;5.85;;;;;;;16.44;100.00;100754.28;6273731;28;20053;-77
2021/07/28 04:00:13;;;;;;;6.22;4.40;;;;;;;16.43;100.00;100750.78;6273331;28;20049;-77
2021/07/28 04:03:15;;;;;;;9.75;5.05;;;;;;;16.38;100.00;100744.16;6273457;28;20443;-77
2021/07/28 04:06:16;;;;;;;9.65;5.10;;;;;;;16.34;100.00;100743.53;6273247;28;20060;-77
2021/07/28 04:09:17;;;;;;;11.48;5.15;;;;;;;16.29;100.00;100743.06;6273097;28;20049;-77
2021/07/28 04:12:20;;;;;;;11.48;5.90;;;;;;;16.29;100.00;100739.56;6273315;28;20049;-77
2021/07/28 04:15:22;;;;;;;8.57;5.50;;;;;;;16.26;100.00;100732.69;6273107;28;20416;-76
2021/07/28 04:18:24;;;;;;;8.68;5.50;;;;;;;16.29;100.00;100735.09;6262930;28;20052;-77
2021/07/28 04:21:25;;;;;;;10.05;5.80;;;;;;;16.30;100.00;100727.97;6250899;28;20394;-77
2021/07/28 04:24:27;;;;;;;9.30;5.72;;;;;;;16.30;100.00;100720.88;6248554;28;20056;-77
2021/07/28 04:27:31;;;;;;;9.27;5.70;;;;;;;16.33;100.00;100728.59;6248521;28;20045;-77
2021/07/28 04:30:32;;;;;;;9.25;6.03;;;;;;;16.35;100.00;100725.81;6247892;28;20046;-77
2021/07/28 04:33:33;;;;;;;9.27;5.88;;;;;;;16.35;100.00;100717.84;6248439;28;20049;-77
2021/07/28 04:36:35;;;;;;;9.70;5.93;;;;;;;16.36;100.00;100716.91;6248860;28;20048;-77
2021/07/28 04:39:36;;;;;;;9.20;6.30;;;;;;;16.40;100.00;100726.31;6247900;28;20425;-77
2021/07/28 04:42:39;;;;;;;9.07;5.95;;;;;;;16.43;100.00;100728.72;6248367;28;20058;-76
2021/07/28 04:45:40;;;;;;;7.82;5.63;;;;;;;16.48;100.00;100710.63;6248375;28;20053;-77
2021/07/28 04:48:41;;;;;;;9.32;6.40;;;;;;;16.46;100.00;100715.22;6247922;28;20501;-78
2021/07/28 04:51:43;;;;;;;13.25;6.22;;;;;;;16.49;100.00;100728.25;6247915;28;20045;-79
2021/07/28 04:54:44;;;;;;;10.13;6.05;;;;;;;16.48;100.00;100719.44;6247471;28;20057;-76
2021/07/28 04:57:47;;;;;;;8.43;5.80;;;;;;;16.49;100.00;100725.59;6247878;28;20045;-79
2021/07/28 05:00:48;;;;;;;10.30;5.90;;;;;;;16.48;100.00;100726.53;6247579;28;20064;-78
2021/07/28 05:03:50;;;;;;;9.13;6.50;;;;;;;16.51;100.00;100725.47;6247463;28;20045;-77
2021/07/28 05:06:51;;;;;;;10.32;6.80;;;;;;;16.49;100.00;100721.13;6247498;28;20055;-76
2021/07/28 05:09:52;;;;;;;11.98;6.82;;;;;;;16.54;100.00;100725.25;6258186;28;20049;-77
2021/07/28 05:12:55;;;;;;;8.27;6.53;;;;;;;16.58;100.00;100716.91;6258810;28;20041;-76
2021/07/28 05:15:56;;;;;;;10.15;6.00;;;;;;;16.58;100.00;100716.03;6259816;28;20068;-77
2021/07/28 05:18:58;;;;;;;11.25;6.40;;;;;;;16.58;100.00;100716.91;6247457;28;20049;-77
2021/07/28 05:21:59;;;;;;;18.45;6.70;;;;;;;16.59;100.00;100718.59;6247299;28;20061;-77
2021/07/28 05:25:00;;;;;;;12.02;6.18;;;;;;;16.65;100.00;100726.06;6247469;28;20061;-78
2021/07/28 05:28:05;;;;;;;13.13;6.13;;;;;;;16.71;100.00;100724.72;6246745;28;20409;-78
2021/07/28 05:31:06;;;;;;;11.45;6.40;;;;;;;16.74;100.00;100729.84;6247405;28;20063;-78
2021/07/28 05:34:10;;;;;;;10.88;6.43;;;;;;;16.77;100.00;100729.59;6246839;28;20069;-75
2021/07/28 05:37:12;;;;;;;11.95;6.40;;;;;;;16.80;100.00;100732.00;6266406;28;20056;-77
2021/07/28 05:40:14;;;;;;;14.65;6.53;;;;;;;16.84;100.00;100738.75;6262035;28;20045;-77
2021/07/28 05:43:17;;;;;;;9.57;6.43;;;;;;;16.89;100.00;100743.69;6251884;28;20049;-77
2021/07/28 05:46:18;;;;;;;9.82;7.10;;;;;;;16.92;100.00;100741.63;6247422;28;20397;-78
2021/07/28 05:49:20;;;;;;;11.07;6.82;;;;;;;16.96;100.00;100745.75;6246851;28;20076;-77
2021/07/28 05:52:21;;;;;;;11.52;6.68;;;;;;;16.99;100.00;100752.63;6246846;28;20504;-76
2021/07/28 05:55:22;;;;;;;10.25;6.90;;;;;;;17.04;100.00;100742.47;6246665;28;20046;-78
2021/07/28 05:58:25;;;;;;;13.82;7.07;;;;;;;17.14;100.00;100746.06;6246624;28;20046;-77
2021/07/28 06:01:26;;;;;;;10.68;6.88;;;;;;;17.23;100.00;100739.16;6246408;28;20060;-77
2021/07/28 06:04:28;;;;;;;9.50;6.10;;;;;;;17.31;100.00;100746.53;6251234;28;20052;-78
2021/07/28 06:07:29;;;;;;;9.80;6.97;;;;;;;17.38;100.00;100750.34;6251402;28;20060;-78
2021/07/28 06:10:30;;;;;;;11.45;7.53;;;;;;;17.44;100.00;100749.84;6251279;28;20393;-78
2021/07/28 06:13:33;;;;;;;14.32;6.68;;;;;;;17.48;100.00;100751.28;6265972;28;20049;-77
2021/07/28 06:16:35;;;;;;;11.40;7.38;;;;;;;17.53;100.00;100749.06;6263787;28;20041;-78
2021/07/28 06:19:36;;;;;;;12.63;7.28;;;;;;;17.60;99.10;100755.59;6275465;28;20416;-78
2021/07/28 06:22:37;;;;;;;13.02;8.20;;;;;;;17.66;98.46;100749.75;6267199;28;20045;-78
2021/07/28 06:25:39;;;;;;;9.57;6.70;;;;;;;17.75;97.85;100750.84;6275962;28;20045;-77
2021/07/28 06:28:42;;;;;;;10.68;6.05;;;;;;;17.81;96.20;100750.34;6275369;28;20048;-76
2021/07/28 06:31:43;;;;;;;10.48;5.68;;;;;;;17.78;94.96;100749.75;6275650;28;20053;-78
2021/07/28 06:34:45;;;;;;;9.63;6.63;;;;;;;17.74;94.47;100760.63;6276152;28;20048;-77
2021/07/28 06:37:46;;;;;;;9.13;6.32;;;;;;;17.71;95.12;100762.66;6276127;28;20053;-78
2021/07/28 06:40:48;;;;;;;7.95;6.20;;;;;;;17.78;97.05;100755.91;6275960;28;20065;-78
2021/07/28 06:43:50;;;;;;;10.68;5.97;;;;;;;17.88;94.94;100755.97;6275737;28;20052;-77
2021/07/28 06:46:52;;;;;;;11.70;5.95;;;;;;;17.96;94.35;100751.69;6275208;28;20053;-78
2021/07/28 06:49:53;;;;;;;9.35;5.75;;;;;;;18.06;91.88;100753.59;6275229;28;20511;-78
2021/07/28 06:52:55;;;;;;;8.02;5.68;;;;;;;18.06;92.67;100754.44;6274767;28;20048;-78
2021/07/28 06:55:56;;;;;;;9.73;5.35;;;;;;;18.12;92.52;100751.28;6275435;28;20076;-78
2021/07/28 06:58:59;;;;;;;16.20;10.82;;;;;;;18.08;93.85;100747.19;6274793;28;20060;-79
2021/07/28 07:02:00;;;;;;;8.00;5.88;;;;;;;18.06;94.97;100749.09;6275033;28;20060;-77
2021/07/28 07:05:01;;;;;;;12.77;5.70;;;;;;;18.08;93.28;100744.53;6275086;28;20045;-77
2021/07/28 07:08:03;;;;;;;11.18;5.75;;;;;;;18.08;92.01;100746.34;6274685;28;20045;-79
2021/07/28 07:11:05;;;;;;;8.70;5.30;;;;;;;18.16;91.95;100743.84;6274757;28;20127;-77
2021/07/28 07:14:07;;;;;;;7.90;5.32;;;;;;;18.25;91.76;100740.41;6274669;28;20049;-77
2021/07/28 07:17:08;;;;;;;14.35;6.40;;;;;;;18.35;92.40;100743.97;6274692;28;20515;-77
2021/07/28 07:20:11;;;;;;;7.53;5.00;;;;;;;18.46;92.52;100740.38;6274382;28;20041;-77
2021/07/28 07:23:12;;;;;;;9.38;5.50;;;;;;;18.61;89.52;100736.38;6274558;28;20052;-77
2021/07/28 07:26:14;;;;;;;9.68;5.38;;;;;;;18.72;90.07;100741.66;6274064;28;20056;-77
2021/07/28 07:29:16;;;;;;;8.07;5.68;;;;;;;18.70;89.58;100726.78;6273841;28;20048;-77
2021/07/28 07:32:21;;;;;;;8.23;5.90;;;;;;;18.77;89.37;100735.09;6271916;28;20053;-77
2021/07/28 07:35:22;;;;;;;10.05;5.20;;;;;;;18.82;88.60;100727.53;6273619;28;20488;-77
2021/07/28 07:38:24;;;;;;;10.30;5.20;;;;;;;18.79;88.27;100725.97;6273159;28;20049;-76
2021/07/28 07:41:25;;;;;;;13.52;5.50;;;;;;;18.90;87.69;100730.38;6272592;28;20041;-77
2021/07/28 07:44:28;;;;;;;6.70;5.25;;;;;;;19.01;86.73;100730.25;6269609;28;21309;-78
2021/07/28 07:47:29;;;;;;;10.23;6.05;;;;;;;19.09;87.29;100732.22;6265560;28;20049;-78
2021/07/28 07:50:35;;;;;;;7.38;5.00;;;;;;;19.12;86.58;100726.59;6272841;28;20411;-77
2021/07/28 07:53:36;;;;;;;11.60;5.38;;;;;;;19.12;86.18;100735.47;6269807;28;20041;-77
2021/07/28 07:56:37;;;;;;;8.30;5.53;;;;;;;19.15;85.22;100729.00;6262251;28;20041;-75
2021/07/28 07:59:40;;;;;;;9.48;5.25;;;;;;;19.15;86.39;100734.31;6273362;28;20136;-76
2021/07/28 08:02:41;;;;;;;9.75;5.32;;;;;;;19.12;86.75;100731.94;6268897;28;20060;-76
2021/07/28 08:05:43;;;;;;;8.20;5.25;;;;;;;19.08;87.04;100735.88;6270548;28;20516;-76
2021/07/28 08:08:44;;;;;;;7.00;4.90;;;;;;;19.09;86.10;100732.22;6271897;28;20053;-75
2021/07/28 08:11:46;;;;;;;8.45;5.13;;;;;;;19.09;83.57;100732.22;6271781;28;20052;-74
2021/07/28 08:14:49;;;;;;;8.82;5.05;;;;;;;19.07;85.20;100736.84;6264110;28;20052;-75
2021/07/28 08:17:50;;;;;;;13.98;5.78;;;;;;;19.08;84.64;100723.41;6273043;28;20049;-75
2021/07/28 08:20:52;;;;;;;7.43;4.82;;;;;;;19.08;86.28;100728.72;6272480;28;20411;-76
2021/07/28 08:23:53;;;;;;;6.60;4.47;;;;;;;19.05;85.80;100729.00;6272609;28;20671;-75
2021/07/28 08:26:55;;;;;;;9.88;4.82;;;;;;;19.15;85.42;100721.00;6272330;28;20045;-74
2021/07/28 08:29:58;;;;;;;9.65;5.00;;;;;;;19.26;85.94;100715.56;6272905;28;20412;-76
2021/07/28 08:32:59;;;;;;;7.30;4.65;;;;;;;19.41;86.08;100719.50;6272715;28;20049;-75
2021/07/28 08:36:01;;;;;;;7.30;4.50;;;;;;;19.50;83.30;100709.81;6272739;28;20052;-76
2021/07/28 08:39:03;;;;;;;8.40;5.03;;;;;;;19.67;84.65;100713.66;6272695;28;20114;-76
2021/07/28 08:42:07;;;;;;;6.82;4.47;;;;;;;19.77;83.06;100701.13;6272427;28;20414;-76
2021/07/28 08:45:10;;;;;;;8.73;4.70;;;;;;;19.75;81.59;100708.44;6272691;28;20495;-77
2021/07/28 08:48:11;;;;;;;8.57;4.65;;;;;;;19.69;83.65;100706.34;6272547;28;20052;-77
2021/07/28 08:51:12;;;;;;;7.63;4.68;;;;;;;19.74;83.70;100706.75;6272206;28;20393;-77
2021/07/28 08:54:14;;;;;;;8.18;5.13;;;;;;;19.72;83.58;100700.72;6272523;28;20041;-76
2021/07/28 08:57:15;;;;;;;9.95;4.30;;;;;;;19.80;82.82;100700.00;6272181;28;20056;-76
2021/07/28 09:00:18;;;;;;;9.27;4.35;;;;;;;19.77;83.36;100701.97;6272243;28;20527;-76
2021/07/28 09:03:20;;;;;;;6.05;4.13;;;;;;;19.83;83.32;100697.91;6263636;28;20052;-76
2021/07/28 09:06:28;;;;;;;9.35;4.10;;;;;;;19.74;81.85;100701.41;6247603;28;20057;-76
2021/07/28 09:09:29;;;;;;;9.95;4.88;;;;;;;19.70;81.88;100703.53;6247088;28;20183;-76
2021/07/28 09:12:32;;;;;;;7.28;4.03;;;;;;;19.89;81.10;100691.97;6262556;28;20052;-76
2021/07/28 09:15:38;;;;;;;7.68;4.25;;;;;;;20.09;81.06;100703.47;6290090;22;20526;-78
2021/07/28 09:18:41;;;;;;;9.40;4.18;;;;;;;20.26;80.80;100705.38;6289369;28;20510;-78
2021/07/28 09:21:43;;;;;;;10.35;4.22;;;;;;;20.37;79.70;100704.34;6297704;28;20201;-79
2021/07/28 09:24:50;;;;;;;6.57;4.40;;;;;;;20.49;77.57;100702.38;6297447;28;20044;-78
2021/07/28 09:27:52;;;;;;;6.22;4.35;;;;;;;20.62;79.29;100697.56;6297362;28;20495;-78
2021/07/28 09:30:55;;;;;;;7.75;4.40;;;;;;;20.84;79.62;100695.44;6295802;28;20044;-78
2021/07/28 09:34:08;;;;;;;9.57;4.50;;;;;;;20.78;77.20;100703.06;6288636;28;20067;-79
2021/07/28 09:37:13;;;;;;;6.43;4.28;;;;;;;20.64;79.04;100706.25;6298005;28;20052;-78
2021/07/28 09:40:22;;;;;;;12.52;4.75;;;;;;;20.45;78.63;100696.47;6293334;28;20048;-78
2021/07/28 09:43:23;;;;;;;6.03;4.43;;;;;;;20.43;79.68;100701.09;6302552;28;20133;-78
2021/07/28 09:46:34;;;;;;;7.03;4.85;;;;;;;20.41;78.69;100704.91;6300641;28;20083;-79
2021/07/28 09:49:36;;;;;;;6.22;4.63;;;;;;;20.41;78.33;100697.75;6294399;28;20056;-79
2021/07/28 09:52:38;;;;;;;7.90;4.45;;;;;;;20.45;77.46;100692.97;6297651;28;20044;-79
2021/07/28 09:55:45;;;;;;;6.28;4.15;;;;;;;20.56;78.90;100692.78;6285438;28;20500;-78
2021/07/28 09:58:47;;;;;;;7.68;4.43;;;;;;;20.55;76.77;100682.25;6287377;28;20070;-79
2021/07/28 10:01:50;;;;;;;11.63;5.00;;;;;;;20.49;75.54;100687.22;6293254;28;20067;-76
2021/07/28 10:04:54;;;;;;;5.82;4.40;;;;;;;20.60;76.80;100685.31;6289110;28;20158;-78
2021/07/28 10:08:00;;;;;;;6.82;4.32;;;;;;;20.81;76.94;100683.25;6278137;28;20049;-78
2021/07/28 10:11:02;;;;;;;7.38;4.63;;;;;;;21.04;73.89;100675.66;6276659;28;20112;-77
2021/07/28 10:14:04;;;;;;;5.63;4.20;;;;;;;21.10;72.03;100674.19;6277345;28;20417;-78
2021/07/28 10:17:07;;;;;;;6.88;4.45;;;;;;;21.22;72.93;100663.13;6276901;28;20049;-77
2021/07/28 10:20:11;;;;;;;8.60;4.70;;;;;;;21.41;71.95;100659.50;6277042;28;20435;-76
2021/07/28 10:23:12;;;;;;;7.80;4.55;;;;;;;21.44;72.21;100661.88;6285462;28;20488;-78
2021/07/28 10:26:14;;;;;;;5.35;4.13;;;;;;;21.44;72.43;100658.34;6302146;28;20045;-77
2021/07/28 10:29:16;;;;;;;8.32;4.68;;;;;;;21.33;71.38;100653.22;6303525;28;20139;-76
2021/07/28 10:32:33;;;;;;;7.05;4.43;;;;;;;21.25;72.41;100654.78;6301918;28;20127;-82
2021/07/28 10:35:34;;;;;;;6.97;4.78;;;;;;;21.23;74.63;100655.94;6300727;28;20049;-77
2021/07/28 10:38:51;;;;;;;10.55;5.10;;;;;;;21.17;74.34;100656.56;6300421;28;20040;-78
2021/07/28 10:41:52;;;;;;;7.55;4.50;;;;;;;21.14;72.96;100655.03;6303425;28;20621;-78
2021/07/28 10:45:05;;;;;;;5.78;4.30;;;;;;;21.00;72.26;100643.03;6302676;28;20041;-79
2021/07/28 10:48:08;;;;;;;9.85;4.22;;;;;;;20.91;71.17;100649.28;6298290;28;20051;-79
2021/07/28 10:51:09;;;;;;;10.43;4.03;;;;;;;20.90;72.22;100650.28;6292213;28;20045;-78
2021/07/28 10:54:10;;;;;;;6.55;4.70;;;;;;;20.77;73.46;100645.31;6293752;28;20060;-78
2021/07/28 10:57:47;;;;;;;6.38;4.43;;;;;;;20.68;74.04;100646.22;6283877;28;20049;-80
2021/07/28 11:00:54;;;;;;;11.70;4.30;;;;;;;20.76;73.29;100638.28;6297310;28;20403;-79
2021/07/28 11:04:23;;;;;;;7.88;4.40;;;;;;;20.77;72.37;100639.13;6302426;28;20040;-77
2021/07/28 11:08:09;;;;;;;6.50;4.80;;;;;;;20.75;74.40;100627.75;6287745;28;20052;-77
2021/07/28 11:11:10;;;;;;;5.07;4.18;;;;;;;20.70;74.14;100624.69;6273002;28;20080;-77
2021/07/28 11:14:12;;;;;;;10.02;4.60;;;;;;;20.61;75.53;100629.09;6278743;28;20049;-81
2021/07/28 11:17:25;;;;;;;6.88;4.45;;;;;;;20.59;75.51;100625.75;6288649;28;20056;-78
2021/07/28 11:20:28;;;;;;;7.95;4.60;;;;;;;20.50;76.25;100632.81;6275592;28;20558;-78
2021/07/28 11:23:44;;;;;;;7.97;4.50;;;;;;;20.51;75.42;100647.00;6278257;28;20064;-77
2021/07/28 11:26:46;;;;;;;7.85;3.78;;;;;;;20.45;77.53;100661.75;6300099;28;20048;-77
2021/07/28 11:29:48;;;;;;;6.70;4.57;;;;;;;20.03;84.32;100690.72;6299853;28;20059;-78
2021/07/28 11:32:51;;;;;;;11.40;5.75;;;;;;;19.18;97.82;100694.94;6299453;28;20170;-78
2021/07/28 11:35:53;;;;;;;10.43;6.75;;;;;;;18.66;100.00;100698.69;6299444;28;20052;-76
2021/07/28 11:38:55;;;;;;;12.70;6.25;;;;;;;18.99;100.00;100689.59;6299073;28;20053;-78
2021/07/28 11:42:05;;;;;;;7.53;5.68;;;;;;;19.23;100.00;100687.38;6299816;28;20055;-80
2021/07/28 11:45:07;;;;;;;7.03;5.30;;;;;;;19.69;100.00;100693.00;6299521;28;20051;-77
2021/07/28 11:48:28;;;;;;;7.25;4.57;;;;;;;19.88;100.00;100686.78;6300045;28;20052;-79
2021/07/28 11:51:31;;;;;;;5.65;4.60;;;;;;;19.54;100.00;100681.06;6299404;28;20049;-77
2021/07/28 11:54:33;;;;;;;5.63;3.47;;;;;;;19.17;100.00;100674.63;6299423;28;20045;-79
2021/07/28 11:57:35;;;;;;;4.22;3.42;;;;;;;18.95;100.00;100677.53;6299007;28;20059;-79
2021/07/28 12:00:39;;;;;;;4.50;3.28;;;;;;;18.75;100.00;100681.94;6298148;28;20068;-78
2021/07/28 12:03:49;;;;;;;4.55;2.92;;;;;;;18.64;100.00;100692.69;6298908;28;20056;-78
2021/07/28 12:06:51;;;;;;;3.80;2.88;;;;;;;18.61;100.00;100696.44;6298788;28;20127;-78
2021/07/28 12:09:59;;;;;;;3.75;2.95;;;;;;;18.65;100.00;100689.03;6298173;28;20055;-79
2021/07/28 12:13:19;;;;;;;3.85;2.67;;;;;;;18.62;100.00;100697.28;6298932;28;20070;-78
2021/07/28 12:16:20;;;;;;;3.08;2.20;;;;;;;18.61;100.00;100699.09;6297993;28;20048;-77
2021/07/28 12:19:28;;;;;;;4.95;2.80;;;;;;;18.68;100.00;100686.97;6298250;28;20045;-77
2021/07/28 12:22:31;;;;;;;4.10;2.50;;;;;;;18.65;100.00;100689.88;6298500;28;20519;-78
2021/07/28 12:25:33;;;;;;;3.03;2.00;;;;;;;18.71;100.00;100686.72;6298494;28;20381;-78
2021/07/28 12:28:47;;;;;;;2.88;2.10;;;;;;;18.82;100.00;100687.59;6297824;28;20056;-78
2021/07/28 12:31:48;;;;;;;3.20;2.20;;;;;;;18.94;100.00;100697.13;6297967;28;20049;-78
2021/07/28 12:34:51;;;;;;;3.85;2.30;;;;;;;18.98;100.00;100680.72;6298485;28;20441;-78
2021/07/28 12:38:04;;;;;;;4.07;2.60;;;;;;;19.16;100.00;100682.72;6298127;28;20048;-77
2021/07/28 12:41:07;;;;;;;4.43;2.85;;;;;;;19.35;100.00;100666.78;6298173;28;20507;-77
2021/07/28 12:44:08;;;;;;;5.25;3.05;;;;;;;19.59;100.00;100665.50;6298009;28;20052;-77
2021/07/28 12:47:09;;;;;;;6.10;3.40;;;;;;;20.02;100.00;100671.16;6298046;28;20040;-76
2021/07/28 12:50:13;;;;;;;4.15;2.78;;;;;;;20.86;100.00;100666.78;6297708;28;20052;-77
2021/07/28 12:53:15;;;;;;;3.83;2.53;;;;;;;21.48;86.93;100673.06;6297547;28;20048;-76
2021/07/28 12:56:16;;;;;;;3.33;2.17;;;;;;;21.14;85.60;100675.56;6297848;28;20040;-80
2021/07/28 12:59:17;;;;;;;5.00;2.10;;;;;;;20.86;86.91;100672.13;6297509;28;20052;-80
2021/07/28 13:02:19;;;;;;;2.20;1.75;;;;;;;20.74;85.79;100672.31;6296554;28;20044;-78
2021/07/28 13:05:24;;;;;;;3.38;1.95;;;;;;;20.60;84.96;100671.97;6295516;28;20413;-78
2021/07/28 13:08:25;;;;;;;5.95;2.40;;;;;;;20.55;84.08;100671.59;6296931;28;20052;-78
2021/07/28 13:11:27;;;;;;;3.38;2.10;;;;;;;21.09;85.42;100677.88;6296850;28;20048;-77
2021/07/28 13:14:28;;;;;;;4.22;2.40;;;;;;;21.61;80.18;100676.19;6296823;28;20701;-80
2021/07/28 13:17:30;;;;;;;10.27;2.40;;;;;;;22.11;78.76;100661.31;6297175;28;20040;-80
2021/07/28 13:20:33;;;;;;;4.78;3.47;;;;;;;22.46;79.18;100677.25;6296479;28;20420;-77
2021/07/28 13:23:35;;;;;;;3.95;2.28;;;;;;;22.60;73.38;100677.66;6297124;28;20051;-81
2021/07/28 13:26:36;;;;;;;3.67;2.20;;;;;;;22.93;75.98;100675.94;6296681;28;20428;-77
2021/07/28 13:29:37;;;;;;;5.32;2.38;;;;;;;23.29;76.69;100669.28;6296410;28;20055;-78
2021/07/28 13:32:39;;;;;;;5.45;2.30;;;;;;;23.55;70.16;100654.88;6297234;28;20420;-79
2021/07/28 13:35:43;;;;;;;13.48;3.35;;;;;;;23.18;72.30;100656.22;6296716;28;20044;-78
2021/07/28 13:38:44;;;;;;;3.30;2.42;;;;;;;23.70;72.34;100663.94;6296716;28;20048;-77
2021/07/28 13:41:45;;;;;;;4.35;2.67;;;;;;;23.74;71.42;100661.78;6296665;28;20167;-77
2021/07/28 13:44:47;;;;;;;3.40;2.80;;;;;;;23.89;68.03;100675.34;6296924;28;20052;-78
2021/07/28 13:47:48;;;;;;;5.22;2.80;;;;;;;23.19;68.47;100660.56;6296878;28;20048;-78
2021/07/28 13:50:51;;;;;;;2.83;2.50;;;;;;;22.89;71.81;100658.47;6296694;28;20051;-79
2021/07/28 13:53:52;;;;;;;7.43;2.92;;;;;;;23.19;70.64;100635.59;6296796;28;20415;-78
2021/07/28 13:57:09;;;;;;;4.25;2.70;;;;;;;23.06;73.04;100636.09;6296624;28;20041;-78
2021/07/28 14:00:14;;;;;;;6.70;3.55;;;;;;;23.15;69.60;100642.31;6296224;28;20048;-74
2021/07/28 14:03:15;;;;;;;4.22;3.13;;;;;;;23.04;69.10;100643.47;6296373;28;20511;-75
2021/07/28 14:06:18;;;;;;;8.43;3.90;;;;;;;23.14;67.93;100637.94;6293771;28;20052;-76